<?xml version="1.0" encoding="UTF-8" standalone="no" ?>
<gpx xmlns="http://www.topografix.com/GPX/1/1" xmlns:xsi="http://www.w3.org/2001/XMLSchema-instance" xsi:schemaLocation="http://www.topografix.com/GPX/1/1 http://www.topografix.com/GPX/1/1/gpx.xsd" version="1.1" creator="VisuGPX - https://www.visugpx.com">
  <metadata>
    <name>Landévant Fort-bloqué 80km</name>
    <desc><![CDATA[Landévant Fort-bloqué 80km]]></desc>
  </metadata>
  <wpt lat="38.85555" lon="-94.79902">
    <ele>333.5</ele>
    <name><![CDATA[GARMIN]]></name>
  </wpt>
  <wpt lat="50.98288" lon="-1.4639">
    <ele>33.5</ele>
    <name><![CDATA[GRMEUR]]></name>
  </wpt>
  <wpt lat="25.06178" lon="121.64027">
    <ele>19</ele>
    <name><![CDATA[GRMTWN]]></name>
  </wpt>
  <wpt lat="47.87632" lon="-3.01188">
    <ele>86.9</ele>
    <name><![CDATA[H]]></name>
  </wpt>
  <trk>
    <name><![CDATA[Fort bloqué Auray_2]]></name>
    <extensions>
      <line xmlns="http://www.topografix.com/GPX/gpx_style/0/2">
        <color>00FF00</color>
        <width>4</width>
      </line>
    </extensions>
    <trkseg>
      <trkpt lat="47.71303" lon="-3.43677">
        <ele>-101.357727</ele>
        <time>2020-12-29T17:32:29.000Z</time>
      </trkpt>
      <trkpt lat="47.71338" lon="-3.43671">
        <ele>-101.357727</ele>
        <time>2020-12-29T17:32:23.000Z</time>
      </trkpt>
      <trkpt lat="47.71376" lon="-3.43668">
        <ele>-101.357727</ele>
        <time>2020-12-29T17:32:16.000Z</time>
      </trkpt>
      <trkpt lat="47.71391" lon="-3.43666">
        <ele>-101.357727</ele>
        <time>2020-12-29T17:32:13.000Z</time>
      </trkpt>
      <trkpt lat="47.71441" lon="-3.43662">
        <ele>-101.337089</ele>
        <time>2020-12-29T17:32:04.000Z</time>
      </trkpt>
      <trkpt lat="47.71451" lon="-3.4366">
        <ele>-101.311993</ele>
        <time>2020-12-29T17:32:02.000Z</time>
      </trkpt>
      <trkpt lat="47.71461" lon="-3.43659">
        <ele>-101.288107</ele>
        <time>2020-12-29T17:32:00.000Z</time>
      </trkpt>
      <trkpt lat="47.7147" lon="-3.43657">
        <ele>-101.265208</ele>
        <time>2020-12-29T17:31:58.000Z</time>
      </trkpt>
      <trkpt lat="47.71479" lon="-3.43655">
        <ele>-101.245083</ele>
        <time>2020-12-29T17:31:56.000Z</time>
      </trkpt>
      <trkpt lat="47.71491" lon="-3.43655">
        <ele>-101.215553</ele>
        <time>2020-12-29T17:31:53.000Z</time>
      </trkpt>
      <trkpt lat="47.7151" lon="-3.43655">
        <ele>-101.170186</ele>
        <time>2020-12-29T17:31:49.000Z</time>
      </trkpt>
      <trkpt lat="47.71514" lon="-3.43655">
        <ele>-101.1589</ele>
        <time>2020-12-29T17:31:48.000Z</time>
      </trkpt>
      <trkpt lat="47.7154" lon="-3.43651">
        <ele>-101.096177</ele>
        <time>2020-12-29T17:31:43.000Z</time>
      </trkpt>
      <trkpt lat="47.71546" lon="-3.4365">
        <ele>-101.082162</ele>
        <time>2020-12-29T17:31:42.000Z</time>
      </trkpt>
      <trkpt lat="47.71588" lon="-3.43644">
        <ele>-100.980722</ele>
        <time>2020-12-29T17:31:35.000Z</time>
      </trkpt>
      <trkpt lat="47.71595" lon="-3.43644">
        <ele>-100.96584</ele>
        <time>2020-12-29T17:31:34.000Z</time>
      </trkpt>
      <trkpt lat="47.71607" lon="-3.43644">
        <ele>-100.936556</ele>
        <time>2020-12-29T17:31:32.000Z</time>
      </trkpt>
      <trkpt lat="47.71624" lon="-3.43642">
        <ele>-100.645505</ele>
        <time>2020-12-29T17:31:29.000Z</time>
      </trkpt>
      <trkpt lat="47.71658" lon="-3.43638">
        <ele>-99.920024</ele>
        <time>2020-12-29T17:31:23.000Z</time>
      </trkpt>
      <trkpt lat="47.71675" lon="-3.43637">
        <ele>-99.545941</ele>
        <time>2020-12-29T17:31:20.000Z</time>
      </trkpt>
      <trkpt lat="47.7168" lon="-3.43636">
        <ele>-99.424764</ele>
        <time>2020-12-29T17:31:19.000Z</time>
      </trkpt>
      <trkpt lat="47.71691" lon="-3.43634">
        <ele>-99.203836</ele>
        <time>2020-12-29T17:31:17.000Z</time>
      </trkpt>
      <trkpt lat="47.71695" lon="-3.43633">
        <ele>-99.109827</ele>
        <time>2020-12-29T17:31:16.000Z</time>
      </trkpt>
      <trkpt lat="47.71706" lon="-3.43632">
        <ele>-98.876183</ele>
        <time>2020-12-29T17:31:12.000Z</time>
      </trkpt>
      <trkpt lat="47.71741" lon="-3.43626">
        <ele>-98.104613</ele>
        <time>2020-12-29T17:31:05.000Z</time>
      </trkpt>
      <trkpt lat="47.71747" lon="-3.43626">
        <ele>-97.978922</ele>
        <time>2020-12-29T17:31:04.000Z</time>
      </trkpt>
      <trkpt lat="47.7177" lon="-3.43622">
        <ele>-97.486542</ele>
        <time>2020-12-29T17:31:00.000Z</time>
      </trkpt>
      <trkpt lat="47.71775" lon="-3.43623">
        <ele>-97.367601</ele>
        <time>2020-12-29T17:30:59.000Z</time>
      </trkpt>
      <trkpt lat="47.71781" lon="-3.43624">
        <ele>-97.250384</ele>
        <time>2020-12-29T17:30:58.000Z</time>
      </trkpt>
      <trkpt lat="47.71786" lon="-3.43624">
        <ele>-97.135675</ele>
        <time>2020-12-29T17:30:57.000Z</time>
      </trkpt>
      <trkpt lat="47.71806" lon="-3.4362">
        <ele>-96.688065</ele>
        <time>2020-12-29T17:30:53.000Z</time>
      </trkpt>
      <trkpt lat="47.71814" lon="-3.43619">
        <ele>-96.506247</ele>
        <time>2020-12-29T17:30:51.000Z</time>
      </trkpt>
      <trkpt lat="47.7182" lon="-3.43622">
        <ele>-96.343782</ele>
        <time>2020-12-29T17:30:49.000Z</time>
      </trkpt>
      <trkpt lat="47.71836" lon="-3.43618">
        <ele>-95.974185</ele>
        <time>2020-12-29T17:30:45.000Z</time>
      </trkpt>
      <trkpt lat="47.71841" lon="-3.43615">
        <ele>-95.867725</ele>
        <time>2020-12-29T17:30:44.000Z</time>
      </trkpt>
      <trkpt lat="47.7186" lon="-3.43611">
        <ele>-95.420385</ele>
        <time>2020-12-29T17:30:40.000Z</time>
      </trkpt>
      <trkpt lat="47.71875" lon="-3.43611">
        <ele>-95.077276</ele>
        <time>2020-12-29T17:30:37.000Z</time>
      </trkpt>
      <trkpt lat="47.71907" lon="-3.43605">
        <ele>-94.359632</ele>
        <time>2020-12-29T17:30:30.000Z</time>
      </trkpt>
      <trkpt lat="47.71939" lon="-3.43595">
        <ele>-93.607989</ele>
        <time>2020-12-29T17:30:23.000Z</time>
      </trkpt>
      <trkpt lat="47.71954" lon="-3.43591">
        <ele>-93.272778</ele>
        <time>2020-12-29T17:30:20.000Z</time>
      </trkpt>
      <trkpt lat="47.71968" lon="-3.43586">
        <ele>-92.937066</ele>
        <time>2020-12-29T17:30:17.000Z</time>
      </trkpt>
      <trkpt lat="47.72001" lon="-3.4357">
        <ele>-92.344441</ele>
        <time>2020-12-29T17:30:10.000Z</time>
      </trkpt>
      <trkpt lat="47.72031" lon="-3.43562">
        <ele>-91.83157</ele>
        <time>2020-12-29T17:30:04.000Z</time>
      </trkpt>
      <trkpt lat="47.72054" lon="-3.43552">
        <ele>-91.418966</ele>
        <time>2020-12-29T17:29:59.000Z</time>
      </trkpt>
      <trkpt lat="47.72085" lon="-3.43541">
        <ele>-90.885977</ele>
        <time>2020-12-29T17:29:53.000Z</time>
      </trkpt>
      <trkpt lat="47.7209" lon="-3.43538">
        <ele>-90.79777</ele>
        <time>2020-12-29T17:29:52.000Z</time>
      </trkpt>
      <trkpt lat="47.72118" lon="-3.43518">
        <ele>-90.260591</ele>
        <time>2020-12-29T17:29:46.000Z</time>
      </trkpt>
      <trkpt lat="47.72123" lon="-3.43514">
        <ele>-90.168942</ele>
        <time>2020-12-29T17:29:45.000Z</time>
      </trkpt>
      <trkpt lat="47.72138" lon="-3.43502">
        <ele>-89.91259</ele>
        <time>2020-12-29T17:29:42.000Z</time>
      </trkpt>
      <trkpt lat="47.72148" lon="-3.43495">
        <ele>-90.083477</ele>
        <time>2020-12-29T17:29:40.000Z</time>
      </trkpt>
      <trkpt lat="47.72161" lon="-3.43486">
        <ele>-90.309447</ele>
        <time>2020-12-29T17:29:37.000Z</time>
      </trkpt>
      <trkpt lat="47.72172" lon="-3.43478">
        <ele>-90.508243</ele>
        <time>2020-12-29T17:29:34.000Z</time>
      </trkpt>
      <trkpt lat="47.72194" lon="-3.43468">
        <ele>-90.864277</ele>
        <time>2020-12-29T17:29:28.000Z</time>
      </trkpt>
      <trkpt lat="47.72198" lon="-3.43466">
        <ele>-90.923966</ele>
        <time>2020-12-29T17:29:27.000Z</time>
      </trkpt>
      <trkpt lat="47.72212" lon="-3.43462">
        <ele>-91.158105</ele>
        <time>2020-12-29T17:29:23.000Z</time>
      </trkpt>
      <trkpt lat="47.72215" lon="-3.43461">
        <ele>-91.210644</ele>
        <time>2020-12-29T17:29:22.000Z</time>
      </trkpt>
      <trkpt lat="47.72226" lon="-3.43459">
        <ele>-91.385067</ele>
        <time>2020-12-29T17:29:19.000Z</time>
      </trkpt>
      <trkpt lat="47.72242" lon="-3.43459">
        <ele>-91.63253</ele>
        <time>2020-12-29T17:29:15.000Z</time>
      </trkpt>
      <trkpt lat="47.72259" lon="-3.43461">
        <ele>-91.901581</ele>
        <time>2020-12-29T17:29:11.000Z</time>
      </trkpt>
      <trkpt lat="47.72276" lon="-3.43463">
        <ele>-92.173348</ele>
        <time>2020-12-29T17:29:07.000Z</time>
      </trkpt>
      <trkpt lat="47.72291" lon="-3.43465">
        <ele>-92.398602</ele>
        <time>2020-12-29T17:29:04.000Z</time>
      </trkpt>
      <trkpt lat="47.72314" lon="-3.4347">
        <ele>-92.672023</ele>
        <time>2020-12-29T17:28:59.000Z</time>
      </trkpt>
      <trkpt lat="47.72345" lon="-3.43474">
        <ele>-92.012514</ele>
        <time>2020-12-29T17:28:52.000Z</time>
      </trkpt>
      <trkpt lat="47.72381" lon="-3.43478">
        <ele>-91.278873</ele>
        <time>2020-12-29T17:28:45.000Z</time>
      </trkpt>
      <trkpt lat="47.72393" lon="-3.43479">
        <ele>-91.026284</ele>
        <time>2020-12-29T17:28:43.000Z</time>
      </trkpt>
      <trkpt lat="47.72418" lon="-3.43481">
        <ele>-90.506051</ele>
        <time>2020-12-29T17:28:39.000Z</time>
      </trkpt>
      <trkpt lat="47.7243" lon="-3.43483">
        <ele>-90.24459</ele>
        <time>2020-12-29T17:28:37.000Z</time>
      </trkpt>
      <trkpt lat="47.72442" lon="-3.43484">
        <ele>-89.987396</ele>
        <time>2020-12-29T17:28:35.000Z</time>
      </trkpt>
      <trkpt lat="47.7246" lon="-3.43487">
        <ele>-89.624868</ele>
        <time>2020-12-29T17:28:32.000Z</time>
      </trkpt>
      <trkpt lat="47.7247" lon="-3.43488">
        <ele>-89.404944</ele>
        <time>2020-12-29T17:28:30.000Z</time>
      </trkpt>
      <trkpt lat="47.72484" lon="-3.43489">
        <ele>-89.11049</ele>
        <time>2020-12-29T17:28:27.000Z</time>
      </trkpt>
      <trkpt lat="47.72502" lon="-3.43491">
        <ele>-88.722321</ele>
        <time>2020-12-29T17:28:23.000Z</time>
      </trkpt>
      <trkpt lat="47.72517" lon="-3.43487">
        <ele>-88.384338</ele>
        <time>2020-12-29T17:28:19.000Z</time>
      </trkpt>
      <trkpt lat="47.72526" lon="-3.43492">
        <ele>-88.154561</ele>
        <time>2020-12-29T17:28:15.000Z</time>
      </trkpt>
      <trkpt lat="47.72528" lon="-3.43494">
        <ele>-88.096997</ele>
        <time>2020-12-29T17:28:14.000Z</time>
      </trkpt>
      <trkpt lat="47.72537" lon="-3.43495">
        <ele>-87.885348</ele>
        <time>2020-12-29T17:28:10.000Z</time>
      </trkpt>
      <trkpt lat="47.72539" lon="-3.43494">
        <ele>-87.831502</ele>
        <time>2020-12-29T17:28:09.000Z</time>
      </trkpt>
      <trkpt lat="47.72541" lon="-3.43486">
        <ele>-87.702768</ele>
        <time>2020-12-29T17:28:06.000Z</time>
      </trkpt>
      <trkpt lat="47.72544" lon="-3.43472">
        <ele>-87.483768</ele>
        <time>2020-12-29T17:28:03.000Z</time>
      </trkpt>
      <trkpt lat="47.72549" lon="-3.43456">
        <ele>-87.213633</ele>
        <time>2020-12-29T17:28:00.000Z</time>
      </trkpt>
      <trkpt lat="47.72554" lon="-3.43446">
        <ele>-87.023686</ele>
        <time>2020-12-29T17:27:58.000Z</time>
      </trkpt>
      <trkpt lat="47.7256" lon="-3.43435">
        <ele>-86.805924</ele>
        <time>2020-12-29T17:27:56.000Z</time>
      </trkpt>
      <trkpt lat="47.72571" lon="-3.43419">
        <ele>-86.461095</ele>
        <time>2020-12-29T17:27:53.000Z</time>
      </trkpt>
      <trkpt lat="47.7259" lon="-3.43394">
        <ele>-85.879639</ele>
        <time>2020-12-29T17:27:48.000Z</time>
      </trkpt>
      <trkpt lat="47.72602" lon="-3.4338">
        <ele>-85.541987</ele>
        <time>2020-12-29T17:27:45.000Z</time>
      </trkpt>
      <trkpt lat="47.72623" lon="-3.4336">
        <ele>-84.973185</ele>
        <time>2020-12-29T17:27:40.000Z</time>
      </trkpt>
      <trkpt lat="47.72652" lon="-3.43338">
        <ele>-84.472277</ele>
        <time>2020-12-29T17:27:33.000Z</time>
      </trkpt>
      <trkpt lat="47.72689" lon="-3.43314">
        <ele>-83.902549</ele>
        <time>2020-12-29T17:27:25.000Z</time>
      </trkpt>
      <trkpt lat="47.72698" lon="-3.4331">
        <ele>-83.769434</ele>
        <time>2020-12-29T17:27:23.000Z</time>
      </trkpt>
      <trkpt lat="47.72715" lon="-3.43307">
        <ele>-83.515688</ele>
        <time>2020-12-29T17:27:19.000Z</time>
      </trkpt>
      <trkpt lat="47.72726" lon="-3.43302">
        <ele>-83.3604</ele>
        <time>2020-12-29T17:27:16.000Z</time>
      </trkpt>
      <trkpt lat="47.72728" lon="-3.433">
        <ele>-83.317349</ele>
        <time>2020-12-29T17:27:15.000Z</time>
      </trkpt>
      <trkpt lat="47.72737" lon="-3.43293">
        <ele>-83.178355</ele>
        <time>2020-12-29T17:27:11.000Z</time>
      </trkpt>
      <trkpt lat="47.72773" lon="-3.43276">
        <ele>-82.632088</ele>
        <time>2020-12-29T17:27:02.000Z</time>
      </trkpt>
      <trkpt lat="47.72782" lon="-3.43272">
        <ele>-82.501539</ele>
        <time>2020-12-29T17:27:00.000Z</time>
      </trkpt>
      <trkpt lat="47.72786" lon="-3.4327">
        <ele>-82.434499</ele>
        <time>2020-12-29T17:26:59.000Z</time>
      </trkpt>
      <trkpt lat="47.72804" lon="-3.43262">
        <ele>-82.2078</ele>
        <time>2020-12-29T17:26:55.000Z</time>
      </trkpt>
      <trkpt lat="47.72824" lon="-3.43254">
        <ele>-81.977668</ele>
        <time>2020-12-29T17:26:50.000Z</time>
      </trkpt>
      <trkpt lat="47.72855" lon="-3.43244">
        <ele>-81.614836</ele>
        <time>2020-12-29T17:26:43.000Z</time>
      </trkpt>
      <trkpt lat="47.72875" lon="-3.43236">
        <ele>-81.385686</ele>
        <time>2020-12-29T17:26:38.000Z</time>
      </trkpt>
      <trkpt lat="47.72879" lon="-3.43234">
        <ele>-81.341605</ele>
        <time>2020-12-29T17:26:37.000Z</time>
      </trkpt>
      <trkpt lat="47.72898" lon="-3.43229">
        <ele>-81.119317</ele>
        <time>2020-12-29T17:26:32.000Z</time>
      </trkpt>
      <trkpt lat="47.72922" lon="-3.43225">
        <ele>-80.847169</ele>
        <time>2020-12-29T17:26:26.000Z</time>
      </trkpt>
      <trkpt lat="47.72935" lon="-3.43226">
        <ele>-80.708202</ele>
        <time>2020-12-29T17:26:23.000Z</time>
      </trkpt>
      <trkpt lat="47.72948" lon="-3.43223">
        <ele>-80.562125</ele>
        <time>2020-12-29T17:26:20.000Z</time>
      </trkpt>
      <trkpt lat="47.7297" lon="-3.43219">
        <ele>-80.314984</ele>
        <time>2020-12-29T17:26:15.000Z</time>
      </trkpt>
      <trkpt lat="47.72979" lon="-3.43217">
        <ele>-80.429427</ele>
        <time>2020-12-29T17:26:13.000Z</time>
      </trkpt>
      <trkpt lat="47.72996" lon="-3.4321">
        <ele>-80.664577</ele>
        <time>2020-12-29T17:26:09.000Z</time>
      </trkpt>
      <trkpt lat="47.73" lon="-3.43208">
        <ele>-80.720726</ele>
        <time>2020-12-29T17:26:08.000Z</time>
      </trkpt>
      <trkpt lat="47.73036" lon="-3.43207">
        <ele>-81.201421</ele>
        <time>2020-12-29T17:26:00.000Z</time>
      </trkpt>
      <trkpt lat="47.73054" lon="-3.43206">
        <ele>-81.437712</ele>
        <time>2020-12-29T17:25:56.000Z</time>
      </trkpt>
      <trkpt lat="47.73075" lon="-3.43206">
        <ele>-81.723351</ele>
        <time>2020-12-29T17:25:51.000Z</time>
      </trkpt>
      <trkpt lat="47.73102" lon="-3.43201">
        <ele>-82.090274</ele>
        <time>2020-12-29T17:25:44.000Z</time>
      </trkpt>
      <trkpt lat="47.73106" lon="-3.432">
        <ele>-82.144739</ele>
        <time>2020-12-29T17:25:43.000Z</time>
      </trkpt>
      <trkpt lat="47.73134" lon="-3.43189">
        <ele>-82.532584</ele>
        <time>2020-12-29T17:25:36.000Z</time>
      </trkpt>
      <trkpt lat="47.73158" lon="-3.43176">
        <ele>-82.852261</ele>
        <time>2020-12-29T17:25:30.000Z</time>
      </trkpt>
      <trkpt lat="47.73186" lon="-3.43158">
        <ele>-83.229621</ele>
        <time>2020-12-29T17:25:23.000Z</time>
      </trkpt>
      <trkpt lat="47.7319" lon="-3.43156">
        <ele>-83.280534</ele>
        <time>2020-12-29T17:25:22.000Z</time>
      </trkpt>
      <trkpt lat="47.73206" lon="-3.4315">
        <ele>-83.475867</ele>
        <time>2020-12-29T17:25:18.000Z</time>
      </trkpt>
      <trkpt lat="47.73213" lon="-3.43147">
        <ele>-83.569855</ele>
        <time>2020-12-29T17:25:16.000Z</time>
      </trkpt>
      <trkpt lat="47.73218" lon="-3.43144">
        <ele>-83.631298</ele>
        <time>2020-12-29T17:25:14.000Z</time>
      </trkpt>
      <trkpt lat="47.73226" lon="-3.43144">
        <ele>-83.722309</ele>
        <time>2020-12-29T17:25:10.000Z</time>
      </trkpt>
      <trkpt lat="47.73228" lon="-3.43147">
        <ele>-83.759438</ele>
        <time>2020-12-29T17:25:09.000Z</time>
      </trkpt>
      <trkpt lat="47.73231" lon="-3.4316">
        <ele>-83.873933</ele>
        <time>2020-12-29T17:25:06.000Z</time>
      </trkpt>
      <trkpt lat="47.73229" lon="-3.4319">
        <ele>-84.119377</ele>
        <time>2020-12-29T17:25:00.000Z</time>
      </trkpt>
      <trkpt lat="47.73229" lon="-3.43195">
        <ele>-84.159465</ele>
        <time>2020-12-29T17:24:59.000Z</time>
      </trkpt>
      <trkpt lat="47.73222" lon="-3.4323">
        <ele>-84.459404</ele>
        <time>2020-12-29T17:24:53.000Z</time>
      </trkpt>
      <trkpt lat="47.73221" lon="-3.43235">
        <ele>-84.501566</ele>
        <time>2020-12-29T17:24:52.000Z</time>
      </trkpt>
      <trkpt lat="47.73221" lon="-3.43244">
        <ele>-84.574247</ele>
        <time>2020-12-29T17:24:48.000Z</time>
      </trkpt>
      <trkpt lat="47.73223" lon="-3.43255">
        <ele>-84.67289</ele>
        <time>2020-12-29T17:24:45.000Z</time>
      </trkpt>
      <trkpt lat="47.73225" lon="-3.4326">
        <ele>-84.714614</ele>
        <time>2020-12-29T17:24:44.000Z</time>
      </trkpt>
      <trkpt lat="47.73235" lon="-3.43267">
        <ele>-84.850891</ele>
        <time>2020-12-29T17:24:40.000Z</time>
      </trkpt>
      <trkpt lat="47.73244" lon="-3.43272">
        <ele>-84.892828</ele>
        <time>2020-12-29T17:24:37.000Z</time>
      </trkpt>
      <trkpt lat="47.73259" lon="-3.43283">
        <ele>-84.889124</ele>
        <time>2020-12-29T17:24:33.000Z</time>
      </trkpt>
      <trkpt lat="47.73263" lon="-3.43286">
        <ele>-84.888161</ele>
        <time>2020-12-29T17:24:32.000Z</time>
      </trkpt>
      <trkpt lat="47.73275" lon="-3.43292">
        <ele>-84.885405</ele>
        <time>2020-12-29T17:24:29.000Z</time>
      </trkpt>
      <trkpt lat="47.73292" lon="-3.43291">
        <ele>-84.881656</ele>
        <time>2020-12-29T17:24:25.000Z</time>
      </trkpt>
      <trkpt lat="47.73319" lon="-3.4329">
        <ele>-84.875847</ele>
        <time>2020-12-29T17:24:18.000Z</time>
      </trkpt>
      <trkpt lat="47.73326" lon="-3.4329">
        <ele>-84.874287</ele>
        <time>2020-12-29T17:24:16.000Z</time>
      </trkpt>
      <trkpt lat="47.73333" lon="-3.43291">
        <ele>-84.872702</ele>
        <time>2020-12-29T17:24:14.000Z</time>
      </trkpt>
      <trkpt lat="47.73358" lon="-3.43288">
        <ele>-84.867154</ele>
        <time>2020-12-29T17:24:08.000Z</time>
      </trkpt>
      <trkpt lat="47.73363" lon="-3.43288">
        <ele>-84.86619</ele>
        <time>2020-12-29T17:24:07.000Z</time>
      </trkpt>
      <trkpt lat="47.73377" lon="-3.43292">
        <ele>-84.862986</ele>
        <time>2020-12-29T17:24:03.000Z</time>
      </trkpt>
      <trkpt lat="47.73391" lon="-3.43293">
        <ele>-84.860005</ele>
        <time>2020-12-29T17:23:58.000Z</time>
      </trkpt>
      <trkpt lat="47.73405" lon="-3.43291">
        <ele>-84.856878</ele>
        <time>2020-12-29T17:23:53.000Z</time>
      </trkpt>
      <trkpt lat="47.73429" lon="-3.43288">
        <ele>-84.709097</ele>
        <time>2020-12-29T17:23:47.000Z</time>
      </trkpt>
      <trkpt lat="47.73448" lon="-3.43287">
        <ele>-84.523704</ele>
        <time>2020-12-29T17:23:42.000Z</time>
      </trkpt>
      <trkpt lat="47.7346" lon="-3.43288">
        <ele>-84.40072</ele>
        <time>2020-12-29T17:23:38.000Z</time>
      </trkpt>
      <trkpt lat="47.73476" lon="-3.43289">
        <ele>-84.236397</ele>
        <time>2020-12-29T17:23:33.000Z</time>
      </trkpt>
      <trkpt lat="47.7348" lon="-3.43289">
        <ele>-84.196504</ele>
        <time>2020-12-29T17:23:32.000Z</time>
      </trkpt>
      <trkpt lat="47.73489" lon="-3.43286">
        <ele>-84.105982</ele>
        <time>2020-12-29T17:23:29.000Z</time>
      </trkpt>
      <trkpt lat="47.73493" lon="-3.43283">
        <ele>-84.058602</ele>
        <time>2020-12-29T17:23:27.000Z</time>
      </trkpt>
      <trkpt lat="47.73497" lon="-3.43282">
        <ele>-84.020412</ele>
        <time>2020-12-29T17:23:25.000Z</time>
      </trkpt>
      <trkpt lat="47.73502" lon="-3.43282">
        <ele>-83.967669</ele>
        <time>2020-12-29T17:23:21.000Z</time>
      </trkpt>
      <trkpt lat="47.73512" lon="-3.43282">
        <ele>-83.870152</ele>
        <time>2020-12-29T17:23:18.000Z</time>
      </trkpt>
      <trkpt lat="47.73516" lon="-3.43281">
        <ele>-83.834555</ele>
        <time>2020-12-29T17:23:17.000Z</time>
      </trkpt>
      <trkpt lat="47.7352" lon="-3.43279">
        <ele>-83.795068</ele>
        <time>2020-12-29T17:23:16.000Z</time>
      </trkpt>
      <trkpt lat="47.73532" lon="-3.43276">
        <ele>-83.668297</ele>
        <time>2020-12-29T17:23:13.000Z</time>
      </trkpt>
      <trkpt lat="47.7354" lon="-3.43274">
        <ele>-83.585817</ele>
        <time>2020-12-29T17:23:11.000Z</time>
      </trkpt>
      <trkpt lat="47.73569" lon="-3.43266">
        <ele>-83.295332</ele>
        <time>2020-12-29T17:23:04.000Z</time>
      </trkpt>
      <trkpt lat="47.73601" lon="-3.43256">
        <ele>-83.130234</ele>
        <time>2020-12-29T17:22:57.000Z</time>
      </trkpt>
      <trkpt lat="47.73628" lon="-3.4325">
        <ele>-83.325392</ele>
        <time>2020-12-29T17:22:51.000Z</time>
      </trkpt>
      <trkpt lat="47.73636" lon="-3.43249">
        <ele>-83.378807</ele>
        <time>2020-12-29T17:22:49.000Z</time>
      </trkpt>
      <trkpt lat="47.73643" lon="-3.43248">
        <ele>-83.425224</ele>
        <time>2020-12-29T17:22:47.000Z</time>
      </trkpt>
      <trkpt lat="47.73647" lon="-3.43248">
        <ele>-83.45599</ele>
        <time>2020-12-29T17:22:45.000Z</time>
      </trkpt>
      <trkpt lat="47.73651" lon="-3.43251">
        <ele>-83.486898</ele>
        <time>2020-12-29T17:22:43.000Z</time>
      </trkpt>
      <trkpt lat="47.7366" lon="-3.4326">
        <ele>-83.561512</ele>
        <time>2020-12-29T17:22:39.000Z</time>
      </trkpt>
      <trkpt lat="47.73672" lon="-3.43246">
        <ele>-83.669286</ele>
        <time>2020-12-29T17:22:34.000Z</time>
      </trkpt>
      <trkpt lat="47.73692" lon="-3.4323">
        <ele>-83.829208</ele>
        <time>2020-12-29T17:22:28.000Z</time>
      </trkpt>
      <trkpt lat="47.73718" lon="-3.43218">
        <ele>-84.018047</ele>
        <time>2020-12-29T17:22:21.000Z</time>
      </trkpt>
      <trkpt lat="47.73725" lon="-3.43213">
        <ele>-84.074571</ele>
        <time>2020-12-29T17:22:19.000Z</time>
      </trkpt>
      <trkpt lat="47.73752" lon="-3.43199">
        <ele>-84.272258</ele>
        <time>2020-12-29T17:22:12.000Z</time>
      </trkpt>
      <trkpt lat="47.73756" lon="-3.43197">
        <ele>-84.300941</ele>
        <time>2020-12-29T17:22:11.000Z</time>
      </trkpt>
      <trkpt lat="47.73787" lon="-3.43178">
        <ele>-84.960879</ele>
        <time>2020-12-29T17:22:03.000Z</time>
      </trkpt>
      <trkpt lat="47.73803" lon="-3.43176">
        <ele>-85.27093</ele>
        <time>2020-12-29T17:21:59.000Z</time>
      </trkpt>
      <trkpt lat="47.73818" lon="-3.43187">
        <ele>-85.624286</ele>
        <time>2020-12-29T17:21:54.000Z</time>
      </trkpt>
      <trkpt lat="47.7383" lon="-3.43183">
        <ele>-85.878825</ele>
        <time>2020-12-29T17:21:50.000Z</time>
      </trkpt>
      <trkpt lat="47.7384" lon="-3.43176">
        <ele>-86.099694</ele>
        <time>2020-12-29T17:21:47.000Z</time>
      </trkpt>
      <trkpt lat="47.73856" lon="-3.43167">
        <ele>-86.448391</ele>
        <time>2020-12-29T17:21:42.000Z</time>
      </trkpt>
      <trkpt lat="47.7387" lon="-3.43167">
        <ele>-86.724616</ele>
        <time>2020-12-29T17:21:38.000Z</time>
      </trkpt>
      <trkpt lat="47.73872" lon="-3.43168">
        <ele>-86.788911</ele>
        <time>2020-12-29T17:21:37.000Z</time>
      </trkpt>
      <trkpt lat="47.73886" lon="-3.43176">
        <ele>-87.085213</ele>
        <time>2020-12-29T17:21:33.000Z</time>
      </trkpt>
      <trkpt lat="47.73902" lon="-3.43185">
        <ele>-87.428499</ele>
        <time>2020-12-29T17:21:29.000Z</time>
      </trkpt>
      <trkpt lat="47.73937" lon="-3.43195">
        <ele>-88.066689</ele>
        <time>2020-12-29T17:21:21.000Z</time>
      </trkpt>
      <trkpt lat="47.73968" lon="-3.43204">
        <ele>-88.316979</ele>
        <time>2020-12-29T17:21:14.000Z</time>
      </trkpt>
      <trkpt lat="47.73974" lon="-3.43205">
        <ele>-88.361385</ele>
        <time>2020-12-29T17:21:13.000Z</time>
      </trkpt>
      <trkpt lat="47.74004" lon="-3.43207">
        <ele>-88.597736</ele>
        <time>2020-12-29T17:21:06.000Z</time>
      </trkpt>
      <trkpt lat="47.74012" lon="-3.43207">
        <ele>-88.664059</ele>
        <time>2020-12-29T17:21:04.000Z</time>
      </trkpt>
      <trkpt lat="47.74039" lon="-3.43212">
        <ele>-88.875373</ele>
        <time>2020-12-29T17:20:59.000Z</time>
      </trkpt>
      <trkpt lat="47.74057" lon="-3.43214">
        <ele>-89.014829</ele>
        <time>2020-12-29T17:20:55.000Z</time>
      </trkpt>
      <trkpt lat="47.74066" lon="-3.43214">
        <ele>-89.092979</ele>
        <time>2020-12-29T17:20:53.000Z</time>
      </trkpt>
      <trkpt lat="47.74071" lon="-3.43216">
        <ele>-89.13399</ele>
        <time>2020-12-29T17:20:52.000Z</time>
      </trkpt>
      <trkpt lat="47.74107" lon="-3.43232">
        <ele>-89.406728</ele>
        <time>2020-12-29T17:20:46.000Z</time>
      </trkpt>
      <trkpt lat="47.74125" lon="-3.43241">
        <ele>-89.011899</ele>
        <time>2020-12-29T17:20:43.000Z</time>
      </trkpt>
      <trkpt lat="47.74135" lon="-3.43246">
        <ele>-88.785874</ele>
        <time>2020-12-29T17:20:41.000Z</time>
      </trkpt>
      <trkpt lat="47.74166" lon="-3.4326">
        <ele>-88.07944</ele>
        <time>2020-12-29T17:20:35.000Z</time>
      </trkpt>
      <trkpt lat="47.742" lon="-3.4328">
        <ele>-87.311126</ele>
        <time>2020-12-29T17:20:29.000Z</time>
      </trkpt>
      <trkpt lat="47.7423" lon="-3.43304">
        <ele>-86.571541</ele>
        <time>2020-12-29T17:20:23.000Z</time>
      </trkpt>
      <trkpt lat="47.74236" lon="-3.43308">
        <ele>-86.431559</ele>
        <time>2020-12-29T17:20:22.000Z</time>
      </trkpt>
      <trkpt lat="47.74242" lon="-3.43312">
        <ele>-86.286947</ele>
        <time>2020-12-29T17:20:21.000Z</time>
      </trkpt>
      <trkpt lat="47.74262" lon="-3.4332">
        <ele>-85.854488</ele>
        <time>2020-12-29T17:20:18.000Z</time>
      </trkpt>
      <trkpt lat="47.74268" lon="-3.43322">
        <ele>-85.707354</ele>
        <time>2020-12-29T17:20:17.000Z</time>
      </trkpt>
      <trkpt lat="47.74281" lon="-3.43327">
        <ele>-85.427374</ele>
        <time>2020-12-29T17:20:15.000Z</time>
      </trkpt>
      <trkpt lat="47.743" lon="-3.43337">
        <ele>-85.016258</ele>
        <time>2020-12-29T17:20:12.000Z</time>
      </trkpt>
      <trkpt lat="47.74306" lon="-3.4334">
        <ele>-84.887934</ele>
        <time>2020-12-29T17:20:11.000Z</time>
      </trkpt>
      <trkpt lat="47.74318" lon="-3.43343">
        <ele>-84.645242</ele>
        <time>2020-12-29T17:20:09.000Z</time>
      </trkpt>
      <trkpt lat="47.74335" lon="-3.43348">
        <ele>-84.269124</ele>
        <time>2020-12-29T17:20:06.000Z</time>
      </trkpt>
      <trkpt lat="47.74373" lon="-3.43361">
        <ele>-83.471162</ele>
        <time>2020-12-29T17:19:59.000Z</time>
      </trkpt>
      <trkpt lat="47.74415" lon="-3.43376">
        <ele>-82.589869</ele>
        <time>2020-12-29T17:19:52.000Z</time>
      </trkpt>
      <trkpt lat="47.74454" lon="-3.4339">
        <ele>-81.903078</ele>
        <time>2020-12-29T17:19:46.000Z</time>
      </trkpt>
      <trkpt lat="47.74473" lon="-3.43397">
        <ele>-82.087462</ele>
        <time>2020-12-29T17:19:43.000Z</time>
      </trkpt>
      <trkpt lat="47.74491" lon="-3.43399">
        <ele>-82.262011</ele>
        <time>2020-12-29T17:19:40.000Z</time>
      </trkpt>
      <trkpt lat="47.7453" lon="-3.43398">
        <ele>-82.631574</ele>
        <time>2020-12-29T17:19:34.000Z</time>
      </trkpt>
      <trkpt lat="47.74561" lon="-3.43397">
        <ele>-82.924609</ele>
        <time>2020-12-29T17:19:29.000Z</time>
      </trkpt>
      <trkpt lat="47.74574" lon="-3.43396">
        <ele>-83.050488</ele>
        <time>2020-12-29T17:19:27.000Z</time>
      </trkpt>
      <trkpt lat="47.74601" lon="-3.43396">
        <ele>-83.304715</ele>
        <time>2020-12-29T17:19:23.000Z</time>
      </trkpt>
      <trkpt lat="47.74629" lon="-3.43397">
        <ele>-83.560625</ele>
        <time>2020-12-29T17:19:19.000Z</time>
      </trkpt>
      <trkpt lat="47.74668" lon="-3.43403">
        <ele>-83.74748</ele>
        <time>2020-12-29T17:19:13.000Z</time>
      </trkpt>
      <trkpt lat="47.74709" lon="-3.43416">
        <ele>-83.941828</ele>
        <time>2020-12-29T17:19:07.000Z</time>
      </trkpt>
      <trkpt lat="47.74749" lon="-3.43442">
        <ele>-84.143332</ele>
        <time>2020-12-29T17:19:00.000Z</time>
      </trkpt>
      <trkpt lat="47.74754" lon="-3.43446">
        <ele>-84.171881</ele>
        <time>2020-12-29T17:18:59.000Z</time>
      </trkpt>
      <trkpt lat="47.74793" lon="-3.43478">
        <ele>-84.379685</ele>
        <time>2020-12-29T17:18:52.000Z</time>
      </trkpt>
      <trkpt lat="47.74822" lon="-3.43495">
        <ele>-84.776593</ele>
        <time>2020-12-29T17:18:47.000Z</time>
      </trkpt>
      <trkpt lat="47.74855" lon="-3.43501">
        <ele>-85.251585</ele>
        <time>2020-12-29T17:18:41.000Z</time>
      </trkpt>
      <trkpt lat="47.74871" lon="-3.43503">
        <ele>-85.478841</ele>
        <time>2020-12-29T17:18:37.000Z</time>
      </trkpt>
      <trkpt lat="47.74875" lon="-3.43503">
        <ele>-85.542596</ele>
        <time>2020-12-29T17:18:35.000Z</time>
      </trkpt>
      <trkpt lat="47.74879" lon="-3.43502">
        <ele>-85.60017</ele>
        <time>2020-12-29T17:18:24.000Z</time>
      </trkpt>
      <trkpt lat="47.74879" lon="-3.43502">
        <ele>-85.613768</ele>
        <time>2020-12-29T17:18:21.000Z</time>
      </trkpt>
      <trkpt lat="47.74879" lon="-3.43501">
        <ele>-85.621163</ele>
        <time>2020-12-29T17:18:20.000Z</time>
      </trkpt>
      <trkpt lat="47.74888" lon="-3.43492">
        <ele>-85.777368</ele>
        <time>2020-12-29T17:18:16.000Z</time>
      </trkpt>
      <trkpt lat="47.74892" lon="-3.43487">
        <ele>-85.850632</ele>
        <time>2020-12-29T17:18:15.000Z</time>
      </trkpt>
      <trkpt lat="47.74901" lon="-3.43481">
        <ele>-85.99607</ele>
        <time>2020-12-29T17:18:13.000Z</time>
      </trkpt>
      <trkpt lat="47.74911" lon="-3.43474">
        <ele>-86.146127</ele>
        <time>2020-12-29T17:18:11.000Z</time>
      </trkpt>
      <trkpt lat="47.74956" lon="-3.43449">
        <ele>-86.82505</ele>
        <time>2020-12-29T17:18:02.000Z</time>
      </trkpt>
      <trkpt lat="47.74994" lon="-3.43434">
        <ele>-87.494295</ele>
        <time>2020-12-29T17:17:55.000Z</time>
      </trkpt>
    </trkseg>
  </trk>
</gpx>